Time;durP1;ratioP1;P1;durP2;ratioP2;P2;SDS_P1;SDS_P2;PMS_P1;PMS_P2;Temp;Humidity;BMP_temperature;BMP_pressure;BME280_temperature;BME280_humidity;BME280_pressure;Samples;Min_cycle;Max_cycle;Signal;HPM_P1;HPM_P2
2023/04/27 00:03:44;;;;;;;3.97;2.65;;;15.40;76.50;;;;;;10789032;33;20424;-75
2023/04/27 00:09:46;;;;;;;3.90;2.28;;;15.30;76.30;;;;;;10836551;32;20047;-75
2023/04/27 00:15:48;;;;;;;2.05;1.55;;;15.30;76.60;;;;;;10838865;32;20283;-75
2023/04/27 00:21:50;;;;;;;2.35;1.87;;;15.20;76.70;;;;;;10788996;33;20334;-75
2023/04/27 00:27:52;;;;;;;3.85;2.97;;;15.20;76.50;;;;;;10787372;33;20020;-75
2023/04/27 00:33:55;;;;;;;2.67;2.00;;;15.00;76.60;;;;;;10788001;33;20029;-75
2023/04/27 00:39:57;;;;;;;5.43;3.10;;;15.00;76.50;;;;;;10787949;33;20016;-75
2023/04/27 00:45:59;;;;;;;4.65;3.12;;;15.00;76.90;;;;;;10787262;33;20043;-75
2023/04/27 00:52:01;;;;;;;5.03;2.95;;;15.00;76.70;;;;;;10787507;33;20051;-75
2023/04/27 00:58:03;;;;;;;3.42;2.60;;;14.90;77.20;;;;;;10836134;32;20058;-75
2023/04/27 01:04:06;;;;;;;2.67;1.92;;;14.80;77.70;;;;;;10788085;33;20031;-76
2023/04/27 01:10:08;;;;;;;3.17;2.37;;;14.80;77.80;;;;;;10787883;33;20020;-76
2023/04/27 01:16:10;;;;;;;3.67;2.60;;;14.70;77.90;;;;;;10841757;32;20059;-75
2023/04/27 01:22:14;;;;;;;3.28;2.17;;;14.70;78.30;;;;;;10793545;33;20020;-75
2023/04/27 01:28:16;;;;;;;5.37;2.87;;;14.60;78.10;;;;;;10842998;32;20067;-75
2023/04/27 01:34:18;;;;;;;4.82;3.42;;;14.60;77.80;;;;;;10793232;33;20036;-75
2023/04/27 01:40:22;;;;;;;4.57;3.05;;;14.70;77.90;;;;;;10792440;33;20024;-75
2023/04/27 01:46:52;;;;;;;4.00;3.20;;;14.60;77.80;;;;;;10793420;33;20374;-75
2023/04/27 01:52:55;;;;;;;4.53;2.92;;;14.60;78.20;;;;;;10792282;33;20050;-75
2023/04/27 01:58:57;;;;;;;8.32;3.60;;;14.50;78.30;;;;;;10793155;33;20012;-75
2023/04/27 02:04:59;;;;;;;4.05;3.08;;;14.40;78.60;;;;;;10839531;32;20394;-75
2023/04/27 02:11:02;;;;;;;6.68;2.85;;;14.40;78.50;;;;;;10792656;33;20021;-75
2023/04/27 02:17:04;;;;;;;6.22;3.47;;;14.30;78.80;;;;;;10791991;33;20016;-75
2023/04/27 02:23:06;;;;;;;3.12;2.17;;;14.30;78.70;;;;;;10790894;33;20038;-75
2023/04/27 02:29:08;;;;;;;5.15;3.60;;;14.20;78.60;;;;;;10791559;33;20402;-75
2023/04/27 02:35:11;;;;;;;3.80;2.55;;;14.20;78.60;;;;;;10790832;33;20029;-75
2023/04/27 02:41:12;;;;;;;4.07;2.60;;;14.20;79.20;;;;;;10791259;33;20012;-75
2023/04/27 02:47:14;;;;;;;4.32;3.47;;;14.20;79.10;;;;;;10791207;33;20035;-75
2023/04/27 02:53:17;;;;;;;3.40;2.37;;;14.20;78.90;;;;;;10786595;33;20032;-75
2023/04/27 02:59:19;;;;;;;4.43;2.92;;;14.10;78.60;;;;;;10826856;32;20040;-75
2023/04/27 03:05:24;;;;;;;3.20;2.22;;;14.10;78.60;;;;;;10791046;33;20043;-75
2023/04/27 03:11:26;;;;;;;5.07;2.70;;;14.10;78.70;;;;;;10791077;33;20326;-75
2023/04/27 03:17:28;;;;;;;6.40;4.30;;;14.00;78.70;;;;;;10790830;33;20043;-75
2023/04/27 03:23:30;;;;;;;6.15;3.60;;;14.00;79.40;;;;;;10790128;33;20025;-75
2023/04/27 03:29:32;;;;;;;5.95;3.10;;;14.00;79.70;;;;;;10789398;33;20016;-75
2023/04/27 03:35:34;;;;;;;5.82;4.05;;;14.00;79.50;;;;;;10789548;33;20024;-75
2023/04/27 03:41:36;;;;;;;4.40;2.95;;;14.00;79.10;;;;;;10789517;33;20016;-75
2023/04/27 03:47:38;;;;;;;3.22;2.40;;;14.00;79.10;;;;;;10789851;33;20047;-75
2023/04/27 03:53:41;;;;;;;4.68;3.80;;;14.00;79.80;;;;;;10789112;33;20024;-75
2023/04/27 03:59:43;;;;;;;3.62;2.80;;;14.00;80.20;;;;;;10839455;32;20024;-75
2023/04/27 04:05:46;;;;;;;5.10;3.80;;;14.00;79.80;;;;;;10787371;33;20052;-75
2023/04/27 04:11:47;;;;;;;3.70;2.67;;;13.90;79.50;;;;;;10789200;33;20020;-75
2023/04/27 04:17:52;;;;;;;3.78;3.03;;;13.90;79.20;;;;;;10788000;33;20394;-75
2023/04/27 04:23:55;;;;;;;5.47;3.60;;;13.90;79.40;;;;;;10788362;33;20024;-76
2023/04/27 04:29:59;;;;;;;3.67;2.90;;;13.80;79.80;;;;;;10785010;33;20032;-75
2023/04/27 04:36:04;;;;;;;6.72;4.50;;;13.80;79.60;;;;;;10788726;33;20028;-75
2023/04/27 04:42:07;;;;;;;3.05;2.65;;;13.80;79.40;;;;;;10788008;33;20020;-75
2023/04/27 04:48:10;;;;;;;5.10;3.37;;;13.80;79.10;;;;;;10787238;33;20429;-76
2023/04/27 04:54:12;;;;;;;3.72;2.75;;;13.80;79.30;;;;;;10786941;33;20024;-75
2023/04/27 05:00:15;;;;;;;3.03;2.37;;;13.80;79.40;;;;;;10787676;33;20402;-75
2023/04/27 05:06:19;;;;;;;4.70;3.40;;;13.80;79.40;;;;;;10788072;33;20012;-75
2023/04/27 05:12:22;;;;;;;4.70;2.58;;;13.80;79.70;;;;;;10837476;32;20059;-75
2023/04/27 05:18:28;;;;;;;3.17;2.47;;;13.90;79.70;;;;;;10783361;33;20378;-75
2023/04/27 05:24:30;;;;;;;3.37;2.37;;;13.90;79.60;;;;;;10754485;33;20029;-76
2023/04/27 05:30:32;;;;;;;1.80;1.35;;;14.00;79.70;;;;;;10751045;33;20028;-75
2023/04/27 05:36:34;;;;;;;3.12;2.12;;;14.10;79.70;;;;;;10749556;32;20024;-75
2023/04/27 05:42:36;;;;;;;3.03;1.67;;;14.20;79.80;;;;;;10750446;33;20009;-75
2023/04/27 05:48:46;;;;;;;3.87;2.87;;;14.30;79.70;;;;;;10736193;33;20059;-76
2023/04/27 05:54:49;;;;;;;3.70;2.75;;;14.30;79.60;;;;;;10749275;33;20079;-75
2023/04/27 06:00:53;;;;;;;3.70;2.90;;;14.40;79.60;;;;;;10769097;32;20024;-75
2023/04/27 06:06:55;;;;;;;5.80;3.20;;;14.50;79.40;;;;;;10822491;32;20024;-76
2023/04/27 06:12:57;;;;;;;5.22;2.87;;;14.60;79.60;;;;;;10811708;32;20055;-75
2023/04/27 06:18:59;;;;;;;4.85;2.97;;;14.70;79.40;;;;;;10789932;32;20345;-75
2023/04/27 06:25:02;;;;;;;8.02;2.08;;;14.80;79.20;;;;;;10787668;33;20016;-75
2023/04/27 06:31:05;;;;;;;3.65;1.80;;;15.00;79.30;;;;;;10789143;33;20017;-75
2023/04/27 06:37:07;;;;;;;6.72;2.45;;;15.00;79.30;;;;;;10791294;33;20008;-74
2023/04/27 06:43:09;;;;;;;6.68;4.50;;;15.20;79.50;;;;;;10828814;32;20335;-75
2023/04/27 06:49:12;;;;;;;7.85;6.07;;;15.20;79.30;;;;;;10791499;33;20039;-75
2023/04/27 06:55:14;;;;;;;6.10;4.85;;;15.20;79.20;;;;;;10790324;33;20050;-74
2023/04/27 07:01:16;;;;;;;5.68;3.83;;;15.20;78.60;;;;;;10790667;33;20016;-75
2023/04/27 07:07:19;;;;;;;8.18;4.78;;;15.30;77.80;;;;;;10789126;33;20011;-73
2023/04/27 07:13:22;;;;;;;5.57;3.08;;;15.40;77.30;;;;;;10838378;32;20082;-73
2023/04/27 07:19:24;;;;;;;6.07;3.28;;;15.60;76.70;;;;;;10786242;33;20024;-74
2023/04/27 07:25:27;;;;;;;5.78;3.47;;;15.70;76.60;;;;;;10790630;33;20017;-75
2023/04/27 07:31:30;;;;;;;4.15;2.85;;;15.70;76.30;;;;;;10789638;33;20038;-75
2023/04/27 07:37:32;;;;;;;4.05;3.28;;;15.90;76.50;;;;;;10789616;33;20020;-75
2023/04/27 07:43:35;;;;;;;3.80;2.45;;;16.00;75.70;;;;;;10786362;33;20013;-75
2023/04/27 07:49:39;;;;;;;2.83;1.95;;;16.10;75.50;;;;;;10789142;33;20024;-75
2023/04/27 07:55:43;;;;;;;2.62;1.50;;;16.20;75.60;;;;;;10765576;27;20353;-73
2023/04/27 08:01:46;;;;;;;4.40;2.72;;;16.30;75.50;;;;;;10752592;33;20391;-73
2023/04/27 08:07:52;;;;;;;5.15;2.30;;;16.40;75.30;;;;;;10750618;33;20047;-73
2023/04/27 08:13:55;;;;;;;3.65;1.95;;;16.50;75.20;;;;;;10752593;33;20021;-72
2023/04/27 08:19:59;;;;;;;3.30;2.75;;;16.60;74.70;;;;;;10751110;33;20028;-73
2023/04/27 08:26:01;;;;;;;6.05;2.08;;;16.80;73.70;;;;;;10796674;32;20058;-73
2023/04/27 08:32:04;;;;;;;6.12;3.53;;;16.90;72.10;;;;;;10752195;33;20025;-72
2023/04/27 08:38:06;;;;;;;1.85;1.52;;;16.90;70.30;;;;;;10752250;33;20075;-74
2023/04/27 08:44:09;;;;;;;2.60;1.77;;;16.90;68.40;;;;;;10749223;33;20024;-73
2023/04/27 08:50:14;;;;;;;3.95;1.50;;;17.00;67.90;;;;;;10750727;33;20021;-73
2023/04/27 08:56:17;;;;;;;1.95;1.33;;;17.10;66.60;;;;;;10746616;33;20349;-72
2023/04/27 09:02:20;;;;;;;2.35;1.73;;;17.20;66.60;;;;;;10751600;33;20056;-73
2023/04/27 09:08:22;;;;;;;1.55;1.15;;;17.30;65.20;;;;;;10751392;33;20016;-73
2023/04/27 09:14:42;;;;;;;5.28;1.77;;;17.40;65.40;;;;;;10800501;32;20122;-73
2023/04/27 09:20:52;;;;;;;1.73;1.37;;;17.50;63.50;;;;;;10751144;33;20025;-73
2023/04/27 09:26:54;;;;;;;1.10;0.95;;;17.60;64.00;;;;;;10796927;32;20036;-73
2023/04/27 09:33:02;;;;;;;8.18;1.80;;;17.70;64.20;;;;;;10751320;33;20425;-73
2023/04/27 09:39:04;;;;;;;2.20;1.33;;;17.80;62.80;;;;;;10805784;32;20059;-72
2023/04/27 09:45:07;;;;;;;2.05;1.45;;;18.00;62.00;;;;;;10805720;32;20045;-73
2023/04/27 09:51:09;;;;;;;2.10;1.27;;;18.10;63.00;;;;;;10756966;33;20028;-73
2023/04/27 09:57:41;;;;;;;3.22;1.50;;;18.20;64.40;;;;;;10756552;33;20028;-73
2023/04/27 10:04:19;;;;;;;1.77;1.20;;;18.30;63.30;;;;;;10756053;33;20043;-73
2023/04/27 10:10:43;;;;;;;1.40;1.15;;;18.50;63.00;;;;;;10755879;33;20346;-73
2023/04/27 10:16:56;;;;;;;0.80;0.80;;;18.60;61.30;;;;;;10755242;33;20025;-73
2023/04/27 10:22:59;;;;;;;3.25;2.20;;;18.70;61.20;;;;;;10755174;33;20051;-73
2023/04/27 10:29:07;;;;;;;2.72;1.67;;;18.90;62.40;;;;;;10755787;33;20016;-73
2023/04/27 10:35:09;;;;;;;4.43;3.15;;;19.00;61.50;;;;;;10803459;32;20067;-72
2023/04/27 10:41:14;;;;;;;6.85;2.08;;;19.10;63.50;;;;;;10755480;33;20012;-73
2023/04/27 10:47:22;;;;;;;6.07;2.05;;;19.20;61.80;;;;;;10803182;32;20083;-72
2023/04/27 10:53:34;;;;;;;2.03;1.73;;;19.50;60.70;;;;;;10753976;33;20102;-73
2023/04/27 10:59:52;;;;;;;2.35;1.70;;;19.80;60.60;;;;;;10754934;33;20315;-73
2023/04/27 11:06:03;;;;;;;2.22;1.25;;;20.10;59.60;;;;;;10803106;32;20064;-73
2023/04/27 11:12:07;;;;;;;3.70;0.95;;;20.30;58.30;;;;;;10753789;33;20021;-73
2023/04/27 11:18:11;;;;;;;1.52;1.23;;;20.50;56.80;;;;;;10759143;32;20028;-73
2023/04/27 11:24:16;;;;;;;1.67;1.10;;;20.70;55.60;;;;;;10790758;33;20012;-73
2023/04/27 11:30:24;;;;;;;3.00;2.00;;;20.80;55.40;;;;;;10790649;33;20374;-74
2023/04/27 11:36:29;;;;;;;1.25;0.95;;;21.20;54.60;;;;;;10826953;32;20032;-74
2023/04/27 11:42:32;;;;;;;2.37;1.40;;;21.10;56.80;;;;;;10840268;32;20036;-74
2023/04/27 11:48:59;;;;;;;2.33;1.23;;;21.00;58.70;;;;;;10789443;33;20044;-74
2023/04/27 11:55:14;;;;;;;1.02;0.80;;;21.00;56.40;;;;;;10784946;33;20027;-73
2023/04/27 12:01:16;;;;;;;1.95;1.25;;;21.10;54.60;;;;;;10787189;33;20052;-73
2023/04/27 12:07:32;;;;;;;0.62;0.57;;;21.30;54.30;;;;;;10838859;32;20059;-73
2023/04/27 12:13:36;;;;;;;2.28;1.20;;;21.30;53.50;;;;;;10787881;33;20050;-73
2023/04/27 12:19:38;;;;;;;1.25;1.00;;;21.40;53.30;;;;;;10826537;32;20382;-73
2023/04/27 12:25:42;;;;;;;1.12;0.90;;;21.20;56.50;;;;;;10838263;32;20033;-72
2023/04/27 12:31:44;;;;;;;2.90;0.80;;;21.10;54.60;;;;;;10788243;33;20039;-73
2023/04/27 12:38:12;;;;;;;0.95;0.82;;;21.00;55.60;;;;;;10788637;33;20070;-72
2023/04/27 12:44:15;;;;;;;1.73;1.10;;;20.90;54.80;;;;;;10788055;33;20317;-73
2023/04/27 12:50:17;;;;;;;1.25;1.08;;;20.90;54.10;;;;;;10788580;33;20070;-73
2023/04/27 12:56:20;;;;;;;3.35;1.27;;;20.80;53.50;;;;;;10837505;32;20040;-73
2023/04/27 13:02:22;;;;;;;0.93;0.75;;;21.00;53.50;;;;;;10837720;32;20036;-73
2023/04/27 13:08:24;;;;;;;1.05;0.95;;;21.10;52.20;;;;;;10785732;33;20082;-73
2023/04/27 13:14:27;;;;;;;1.20;1.00;;;21.00;52.60;;;;;;10794431;33;20048;-74
2023/04/27 13:20:29;;;;;;;4.93;1.37;;;20.90;53.30;;;;;;10794377;33;20051;-73
2023/04/27 13:26:31;;;;;;;1.45;0.90;;;20.80;54.50;;;;;;10842446;32;20036;-73
2023/04/27 13:33:13;;;;;;;1.12;0.80;;;20.90;53.10;;;;;;10793221;33;20028;-73
2023/04/27 13:39:16;;;;;;;1.20;0.77;;;20.90;52.00;;;;;;10789614;33;20024;-73
2023/04/27 13:45:18;;;;;;;0.50;0.50;;;21.00;51.70;;;;;;10790673;33;20032;-73
2023/04/27 13:51:20;;;;;;;1.05;0.77;;;21.00;51.20;;;;;;10843452;32;20055;-73
2023/04/27 13:57:22;;;;;;;1.17;0.70;;;21.00;50.40;;;;;;10789163;32;21030;-73
2023/04/27 14:03:24;;;;;;;1.75;0.70;;;20.80;50.20;;;;;;10841623;32;20054;-73
2023/04/27 14:09:27;;;;;;;0.90;0.50;;;20.80;50.80;;;;;;10792124;33;20070;-73
2023/04/27 14:15:29;;;;;;;0.55;0.45;;;20.80;49.70;;;;;;10841369;32;20028;-73
2023/04/27 14:21:31;;;;;;;1.83;0.85;;;20.70;50.40;;;;;;10791892;33;20024;-73
2023/04/27 14:27:33;;;;;;;1.45;0.93;;;20.80;51.40;;;;;;10791718;33;20339;-73
2023/04/27 14:33:36;;;;;;;1.20;0.50;;;20.80;51.00;;;;;;10840130;32;20032;-74
2023/04/27 14:39:39;;;;;;;0.80;0.75;;;20.80;50.80;;;;;;10840305;32;20070;-74
2023/04/27 14:45:41;;;;;;;0.62;0.50;;;20.90;50.60;;;;;;10842096;32;20035;-73
2023/04/27 14:51:43;;;;;;;3.47;0.80;;;21.00;51.60;;;;;;10841199;32;20029;-74
2023/04/27 14:57:45;;;;;;;0.82;0.70;;;20.90;51.50;;;;;;10790853;33;20025;-74
2023/04/27 15:03:49;;;;;;;3.12;0.70;;;21.10;50.90;;;;;;10790833;33;20070;-73
2023/04/27 15:09:53;;;;;;;0.50;0.40;;;21.30;50.60;;;;;;10791358;33;20428;-73
2023/04/27 15:15:57;;;;;;;2.60;1.50;;;21.30;50.00;;;;;;10837202;32;20192;-72
2023/04/27 15:21:59;;;;;;;0.75;0.60;;;21.40;49.90;;;;;;10838389;32;20028;-72
2023/04/27 15:28:02;;;;;;;0.95;0.68;;;21.40;50.80;;;;;;10788928;33;20012;-73
2023/04/27 15:34:04;;;;;;;1.30;0.60;;;21.60;50.20;;;;;;10788651;33;20050;-73
2023/04/27 15:40:08;;;;;;;1.08;0.80;;;21.60;50.20;;;;;;10790391;33;20044;-74
2023/04/27 15:46:11;;;;;;;1.35;0.55;;;21.70;50.20;;;;;;10789860;33;20016;-74
2023/04/27 15:54:38;;;;;;;1.23;0.82;;;21.70;50.20;;;;;;10853869;32;7505714;-73
2023/04/27 16:00:41;;;;;;;1.27;0.82;;;21.80;48.60;;;;;;11048445;32;20106;-73
2023/04/27 16:06:45;;;;;;;2.47;0.68;;;21.80;49.30;;;;;;11050865;32;20014;-73
2023/04/27 16:12:47;;;;;;;1.10;0.77;;;21.80;50.50;;;;;;11051075;32;20057;-74
2023/04/27 16:18:50;;;;;;;0.50;0.50;;;21.80;51.00;;;;;;11050393;32;20006;-73
2023/04/27 16:24:52;;;;;;;1.60;0.57;;;21.80;50.80;;;;;;11050523;32;20014;-73
2023/04/27 16:30:54;;;;;;;0.60;0.60;;;21.80;48.70;;;;;;11049243;32;20321;-73
2023/04/27 16:36:59;;;;;;;0.55;0.50;;;22.00;48.20;;;;;;11050469;32;20315;-73
2023/04/27 16:43:01;;;;;;;2.67;0.95;;;22.20;48.60;;;;;;11047513;32;20026;-74
2023/04/27 16:49:05;;;;;;;1.30;0.73;;;22.20;49.90;;;;;;11028967;32;20046;-73
2023/04/27 16:55:10;;;;;;;7.15;1.10;;;22.60;48.90;;;;;;11034360;32;20019;-73
2023/04/27 17:01:13;;;;;;;1.85;0.68;;;23.80;47.40;;;;;;11014605;32;20352;-74
2023/04/27 17:07:18;;;;;;;1.20;0.52;;;23.80;48.00;;;;;;10999006;32;20077;-74
2023/04/27 17:13:24;;;;;;;0.77;0.77;;;23.10;48.90;;;;;;11021914;32;20049;-74
2023/04/27 17:19:27;;;;;;;0.82;0.80;;;22.60;50.30;;;;;;11009698;32;20407;-74
2023/04/27 17:25:30;;;;;;;0.65;0.40;;;23.30;48.20;;;;;;11008020;32;20037;-73
2023/04/27 17:31:32;;;;;;;1.20;0.62;;;24.10;46.30;;;;;;10994705;32;20023;-74
2023/04/27 17:37:36;;;;;;;0.60;0.47;;;23.60;48.10;;;;;;10982371;32;20045;-73
2023/04/27 17:43:39;;;;;;;0.55;0.52;;;22.60;50.50;;;;;;10970577;32;20039;-72
2023/04/27 17:49:42;;;;;;;0.77;0.50;;;21.90;51.60;;;;;;10969753;32;20026;-72
2023/04/27 17:55:44;;;;;;;1.80;0.85;;;21.40;52.20;;;;;;10983225;32;20023;-72
2023/04/27 18:01:46;;;;;;;1.87;0.90;;;21.00;53.30;;;;;;10982848;32;20333;-72
2023/04/27 18:07:48;;;;;;;0.70;0.70;;;20.60;54.00;;;;;;10976392;32;20053;-72
2023/04/27 18:14:11;;;;;;;1.40;0.80;;;20.30;54.20;;;;;;10982225;32;20018;-72
2023/04/27 18:20:15;;;;;;;1.60;0.70;;;20.10;54.50;;;;;;10969204;32;20042;-73
2023/04/27 18:26:17;;;;;;;0.73;0.50;;;19.90;54.90;;;;;;10982716;32;20046;-72
2023/04/27 18:32:22;;;;;;;1.77;0.98;;;19.80;55.40;;;;;;10976996;32;20053;-72
2023/04/27 18:38:28;;;;;;;3.28;1.95;;;19.60;55.90;;;;;;10981919;32;20050;-72
2023/04/27 18:44:35;;;;;;;1.48;1.12;;;19.40;56.80;;;;;;10968718;32;20069;-73
2023/04/27 18:50:43;;;;;;;1.73;1.10;;;19.30;57.40;;;;;;10977273;32;20018;-72
2023/04/27 18:56:51;;;;;;;2.85;1.23;;;19.20;58.20;;;;;;10979622;32;20034;-73
2023/04/27 19:02:53;;;;;;;1.42;1.17;;;19.10;58.40;;;;;;10979467;32;20042;-73
2023/04/27 19:08:56;;;;;;;1.70;1.05;;;19.00;59.40;;;;;;10978919;32;20022;-73
2023/04/27 19:14:58;;;;;;;1.27;1.00;;;18.80;61.40;;;;;;10977406;32;20050;-73
2023/04/27 19:21:00;;;;;;;3.03;1.58;;;18.70;62.00;;;;;;10980792;32;20026;-72
2023/04/27 19:27:03;;;;;;;1.20;1.10;;;18.70;62.50;;;;;;10965843;32;20030;-73
2023/04/27 19:33:05;;;;;;;1.02;0.93;;;18.60;62.60;;;;;;10979905;32;20406;-73
2023/04/27 19:39:08;;;;;;;2.97;2.05;;;18.50;64.40;;;;;;10979968;32;20045;-73
2023/04/27 19:45:11;;;;;;;2.62;2.28;;;18.40;65.90;;;;;;10979561;32;20030;-73
2023/04/27 19:51:13;;;;;;;3.25;2.55;;;18.30;67.40;;;;;;10963166;32;20408;-73
2023/04/27 19:57:36;;;;;;;7.30;4.37;;;18.20;67.60;;;;;;10965912;32;20026;-73
2023/04/27 20:03:41;;;;;;;7.85;3.20;;;18.10;67.50;;;;;;10978816;32;20045;-73
2023/04/27 20:09:44;;;;;;;4.37;2.85;;;18.00;68.60;;;;;;10952286;32;20042;-73
2023/04/27 20:15:46;;;;;;;4.37;3.03;;;17.90;68.60;;;;;;10978564;32;20041;-73
2023/04/27 20:21:49;;;;;;;5.95;3.55;;;17.80;69.30;;;;;;10976049;32;20456;-72
2023/04/27 20:27:53;;;;;;;4.22;2.60;;;17.80;69.20;;;;;;10978250;32;20423;-72
2023/04/27 20:33:57;;;;;;;4.50;3.25;;;17.80;70.00;;;;;;10977175;32;20034;-72
2023/04/27 20:40:04;;;;;;;3.80;2.62;;;17.70;69.90;;;;;;10984721;32;20381;-73
2023/04/27 20:46:11;;;;;;;4.90;3.05;;;17.60;69.70;;;;;;10985255;32;20022;-75
2023/04/27 20:52:16;;;;;;;7.47;4.03;;;17.50;69.80;;;;;;10984996;32;20031;-75
2023/04/27 20:58:22;;;;;;;2.87;2.22;;;17.50;69.80;;;;;;10985481;32;20344;-75
2023/04/27 21:04:27;;;;;;;3.08;2.20;;;17.30;69.90;;;;;;10985783;32;20014;-75
2023/04/27 21:10:34;;;;;;;3.22;2.70;;;17.20;70.20;;;;;;10985999;32;20428;-75
2023/04/27 21:16:37;;;;;;;4.45;3.25;;;17.20;70.20;;;;;;10984910;32;20050;-75
2023/04/27 21:22:42;;;;;;;5.43;2.58;;;17.20;70.20;;;;;;10985143;32;20023;-75
2023/04/27 21:28:51;;;;;;;3.87;2.55;;;17.00;70.50;;;;;;10984961;32;20397;-75
2023/04/27 21:34:55;;;;;;;7.25;3.97;;;17.00;70.60;;;;;;10984649;32;20046;-75
2023/04/27 21:40:58;;;;;;;3.65;2.62;;;17.00;71.10;;;;;;10984394;32;20046;-75
2023/04/27 21:47:01;;;;;;;6.43;3.90;;;16.90;71.40;;;;;;10982981;32;20019;-75
2023/04/27 21:53:03;;;;;;;5.25;3.12;;;16.80;71.60;;;;;;10983036;32;20022;-75
2023/04/27 21:59:05;;;;;;;4.20;3.12;;;16.80;71.40;;;;;;10983094;32;20019;-75
2023/04/27 22:05:08;;;;;;;4.87;3.20;;;16.70;71.70;;;;;;10982800;32;20389;-75
2023/04/27 22:11:10;;;;;;;8.25;3.90;;;16.70;71.70;;;;;;10983275;32;20026;-75
2023/04/27 22:17:12;;;;;;;5.12;3.80;;;16.70;71.90;;;;;;10982569;32;20317;-75
2023/04/27 22:23:17;;;;;;;3.05;2.42;;;16.70;72.50;;;;;;10981678;32;20027;-74
2023/04/27 22:29:21;;;;;;;3.53;2.85;;;16.60;72.90;;;;;;10981643;32;20070;-75
2023/04/27 22:35:25;;;;;;;5.15;3.75;;;16.50;72.90;;;;;;10982432;32;20031;-75
2023/04/27 22:41:27;;;;;;;5.03;3.12;;;16.50;72.80;;;;;;10978741;32;20023;-75
2023/04/27 22:47:29;;;;;;;3.53;2.70;;;16.50;72.30;;;;;;10964620;32;20058;-75
2023/04/27 22:53:33;;;;;;;3.28;2.50;;;16.40;72.20;;;;;;10980385;32;20023;-75
2023/04/27 22:59:35;;;;;;;3.22;2.50;;;16.30;72.50;;;;;;10954714;32;20057;-75
2023/04/27 23:05:37;;;;;;;4.70;3.12;;;16.20;73.10;;;;;;10981432;32;20376;-75
2023/04/27 23:12:06;;;;;;;4.43;3.12;;;16.10;73.40;;;;;;10981115;32;20023;-75
2023/04/27 23:18:22;;;;;;;4.22;2.37;;;16.00;73.30;;;;;;10979844;32;20037;-75
2023/04/27 23:24:26;;;;;;;5.50;3.28;;;15.90;73.50;;;;;;10977880;32;20014;-75
2023/04/27 23:30:54;;;;;;;4.82;3.70;;;15.80;73.30;;;;;;10965459;32;20062;-75
2023/04/27 23:36:56;;;;;;;6.65;4.25;;;15.80;73.10;;;;;;10965700;32;20035;-74
2023/04/27 23:42:58;;;;;;;4.43;3.30;;;15.80;72.90;;;;;;10979443;32;20071;-75
2023/04/27 23:49:01;;;;;;;4.25;3.20;;;15.80;72.90;;;;;;10977824;27;20085;-74
2023/04/27 23:55:16;;;;;;;4.50;2.58;;;15.70;73.30;;;;;;10860086;32;20050;-75
